Terminal Aerodrome Forecast
Issued by NWS Wilmington, OH

Current Version | Previous Version | Graphics & Text | Print | Product List | Glossary On
Versions: 1 2 3 4 5 6 7 8 9 10 11 12 13 14 15 16 17 18
000
FTUS41 KILN 251700
TAFILN
TAF
KILN 251740Z 2518/2618 04006KT P6SM OVC250
     FM260300 04008KT P6SM OVC100
     FM261200 02010KT P6SM OVC050
     FM261500 02012KT P6SM OVC025=

USA.gov is the U.S. government's official web portal to all federal, state and local government web resources and services.